sensor_id;sensor_type;location;lat;lon;timestamp;temperature;humidity
19847;DHT22;10084;50.518;8.588;2022-07-23T00:11:22;21.70;90.80
19847;DHT22;10084;50.518;8.588;2022-07-23T00:16:14;21.50;89.40
19847;DHT22;10084;50.518;8.588;2022-07-23T00:18:39;21.50;82.50
19847;DHT22;10084;50.518;8.588;2022-07-23T00:21:05;21.40;84.90
19847;DHT22;10084;50.518;8.588;2022-07-23T00:30:51;21.20;91.10
19847;DHT22;10084;50.518;8.588;2022-07-23T00:33:18;21.20;85.00
19847;DHT22;10084;50.518;8.588;2022-07-23T00:35:43;21.20;84.60
19847;DHT22;10084;50.518;8.588;2022-07-23T00:38:10;21.20;85.50
19847;DHT22;10084;50.518;8.588;2022-07-23T00:40:37;21.10;86.30
19847;DHT22;10084;50.518;8.588;2022-07-23T00:43:04;21.10;86.10
19847;DHT22;10084;50.518;8.588;2022-07-23T00:45:30;21.10;86.20
19847;DHT22;10084;50.518;8.588;2022-07-23T00:47:56;21.10;86.80
19847;DHT22;10084;50.518;8.588;2022-07-23T00:55:16;21.00;90.40
19847;DHT22;10084;50.518;8.588;2022-07-23T00:57:42;21.00;84.40
19847;DHT22;10084;50.518;8.588;2022-07-23T01:00:11;21.00;84.90
19847;DHT22;10084;50.518;8.588;2022-07-23T01:02:37;20.90;87.40
19847;DHT22;10084;50.518;8.588;2022-07-23T01:27:13;20.70;93.10
19847;DHT22;10084;50.518;8.588;2022-07-23T01:29:39;20.80;91.00
19847;DHT22;10084;50.518;8.588;2022-07-23T01:32:11;20.80;85.50
19847;DHT22;10084;50.518;8.588;2022-07-23T01:34:37;20.80;83.70
19847;DHT22;10084;50.518;8.588;2022-07-23T01:37:03;20.80;84.20
19847;DHT22;10084;50.518;8.588;2022-07-23T01:39:30;20.80;83.10
19847;DHT22;10084;50.518;8.588;2022-07-23T01:41:56;20.80;83.20
19847;DHT22;10084;50.518;8.588;2022-07-23T01:44:23;20.80;83.20
19847;DHT22;10084;50.518;8.588;2022-07-23T01:46:48;20.70;82.70
19847;DHT22;10084;50.518;8.588;2022-07-23T01:49:15;20.70;82.90
19847;DHT22;10084;50.518;8.588;2022-07-23T01:51:49;20.70;83.00
19847;DHT22;10084;50.518;8.588;2022-07-23T01:54:39;20.60;82.90
19847;DHT22;10084;50.518;8.588;2022-07-23T01:57:07;20.60;83.00
19847;DHT22;10084;50.518;8.588;2022-07-23T01:59:33;20.50;83.10
19847;DHT22;10084;50.518;8.588;2022-07-23T02:01:59;20.50;84.20
19847;DHT22;10084;50.518;8.588;2022-07-23T02:04:27;20.50;84.30
19847;DHT22;10084;50.518;8.588;2022-07-23T02:06:54;20.50;84.70
19847;DHT22;10084;50.518;8.588;2022-07-23T02:09:20;20.40;85.70
19847;DHT22;10084;50.518;8.588;2022-07-23T02:11:46;20.50;86.70
19847;DHT22;10084;50.518;8.588;2022-07-23T02:14:12;20.40;87.30
19847;DHT22;10084;50.518;8.588;2022-07-23T02:16:38;20.40;87.30
19847;DHT22;10084;50.518;8.588;2022-07-23T02:19:04;20.30;89.70
19847;DHT22;10084;50.518;8.588;2022-07-23T02:21:30;20.30;89.40
19847;DHT22;10084;50.518;8.588;2022-07-23T02:23:55;20.30;88.30
19847;DHT22;10084;50.518;8.588;2022-07-23T02:26:21;20.30;88.40
19847;DHT22;10084;50.518;8.588;2022-07-23T02:28:50;20.30;90.00
19847;DHT22;10084;50.518;8.588;2022-07-23T02:31:16;20.30;90.20
19847;DHT22;10084;50.518;8.588;2022-07-23T02:36:10;20.20;94.60
19847;DHT22;10084;50.518;8.588;2022-07-23T02:38:36;20.20;87.80
19847;DHT22;10084;50.518;8.588;2022-07-23T02:41:02;20.20;86.50
19847;DHT22;10084;50.518;8.588;2022-07-23T02:43:28;20.20;86.50
19847;DHT22;10084;50.518;8.588;2022-07-23T02:45:55;20.30;87.20
19847;DHT22;10084;50.518;8.588;2022-07-23T02:48:20;20.30;87.40
19847;DHT22;10084;50.518;8.588;2022-07-23T02:50:47;20.30;87.80
19847;DHT22;10084;50.518;8.588;2022-07-23T02:53:17;20.20;87.70
19847;DHT22;10084;50.518;8.588;2022-07-23T02:55:43;20.20;88.40
19847;DHT22;10084;50.518;8.588;2022-07-23T02:58:09;20.20;88.60
19847;DHT22;10084;50.518;8.588;2022-07-23T03:00:35;20.20;89.90
19847;DHT22;10084;50.518;8.588;2022-07-23T03:03:00;20.20;90.20
19847;DHT22;10084;50.518;8.588;2022-07-23T03:05:26;20.20;89.90
19847;DHT22;10084;50.518;8.588;2022-07-23T03:07:52;20.20;90.70
19847;DHT22;10084;50.518;8.588;2022-07-23T03:10:17;20.20;90.60
19847;DHT22;10084;50.518;8.588;2022-07-23T03:12:44;20.20;90.90
19847;DHT22;10084;50.518;8.588;2022-07-23T03:15:09;20.20;91.10
19847;DHT22;10084;50.518;8.588;2022-07-23T03:17:35;20.10;91.40
19847;DHT22;10084;50.518;8.588;2022-07-23T03:20:02;20.10;91.70
19847;DHT22;10084;50.518;8.588;2022-07-23T03:22:28;20.00;91.50
19847;DHT22;10084;50.518;8.588;2022-07-23T03:24:53;20.10;92.00
19847;DHT22;10084;50.518;8.588;2022-07-23T03:27:26;20.10;91.70
19847;DHT22;10084;50.518;8.588;2022-07-23T03:29:53;20.10;91.60
19847;DHT22;10084;50.518;8.588;2022-07-23T03:32:20;20.00;91.70
19847;DHT22;10084;50.518;8.588;2022-07-23T03:34:46;20.10;92.00
19847;DHT22;10084;50.518;8.588;2022-07-23T03:37:12;20.10;92.00
19847;DHT22;10084;50.518;8.588;2022-07-23T03:39:39;20.00;92.00
19847;DHT22;10084;50.518;8.588;2022-07-23T03:42:05;20.00;92.10
19847;DHT22;10084;50.518;8.588;2022-07-23T03:44:31;20.00;92.30
19847;DHT22;10084;50.518;8.588;2022-07-23T03:46:57;20.00;93.00
19847;DHT22;10084;50.518;8.588;2022-07-23T03:49:23;20.00;92.00
19847;DHT22;10084;50.518;8.588;2022-07-23T03:51:49;20.00;92.20
19847;DHT22;10084;50.518;8.588;2022-07-23T03:54:17;20.00;92.30
19847;DHT22;10084;50.518;8.588;2022-07-23T03:56:43;20.00;93.00
19847;DHT22;10084;50.518;8.588;2022-07-23T03:59:10;20.00;92.90
19847;DHT22;10084;50.518;8.588;2022-07-23T04:01:36;20.00;92.10
19847;DHT22;10084;50.518;8.588;2022-07-23T04:04:02;20.00;91.70
19847;DHT22;10084;50.518;8.588;2022-07-23T04:06:29;20.00;92.10
19847;DHT22;10084;50.518;8.588;2022-07-23T04:08:56;19.90;92.00
19847;DHT22;10084;50.518;8.588;2022-07-23T04:11:22;19.90;92.20
19847;DHT22;10084;50.518;8.588;2022-07-23T04:13:48;19.90;92.30
19847;DHT22;10084;50.518;8.588;2022-07-23T04:16:14;19.90;92.00
19847;DHT22;10084;50.518;8.588;2022-07-23T04:18:40;19.90;92.10
19847;DHT22;10084;50.518;8.588;2022-07-23T04:21:13;19.90;92.60
19847;DHT22;10084;50.518;8.588;2022-07-23T04:23:39;19.90;92.50
19847;DHT22;10084;50.518;8.588;2022-07-23T04:26:05;20.00;92.80
19847;DHT22;10084;50.518;8.588;2022-07-23T04:43:22;20.40;92.50
19847;DHT22;10084;50.518;8.588;2022-07-23T04:50:48;20.50;95.20
19847;DHT22;10084;50.518;8.588;2022-07-23T04:58:12;20.30;93.30
19847;DHT22;10084;50.518;8.588;2022-07-23T05:00:38;20.50;91.60
19847;DHT22;10084;50.518;8.588;2022-07-23T05:03:04;20.50;91.50
19847;DHT22;10084;50.518;8.588;2022-07-23T05:05:31;20.70;91.20
19847;DHT22;10084;50.518;8.588;2022-07-23T05:08:05;20.70;91.50
19847;DHT22;10084;50.518;8.588;2022-07-23T05:10:31;20.90;91.30
19847;DHT22;10084;50.518;8.588;2022-07-23T05:12:57;21.00;92.00
19847;DHT22;10084;50.518;8.588;2022-07-23T05:55:15;30.00;77.50
19847;DHT22;10084;50.518;8.588;2022-07-23T05:57:41;30.60;82.50
19847;DHT22;10084;50.518;8.588;2022-07-23T06:00:08;31.00;64.30
19847;DHT22;10084;50.518;8.588;2022-07-23T06:02:39;31.40;68.70
19847;DHT22;10084;50.518;8.588;2022-07-23T06:05:07;31.90;70.20
19847;DHT22;10084;50.518;8.588;2022-07-23T06:07:34;32.20;69.60
19847;DHT22;10084;50.518;8.588;2022-07-23T06:10:00;32.40;61.50
19847;DHT22;10084;50.518;8.588;2022-07-23T06:12:26;32.60;62.30
19847;DHT22;10084;50.518;8.588;2022-07-23T06:14:51;32.80;64.60
19847;DHT22;10084;50.518;8.588;2022-07-23T06:17:18;33.10;64.90
19847;DHT22;10084;50.518;8.588;2022-07-23T06:19:44;33.30;65.10
19847;DHT22;10084;50.518;8.588;2022-07-23T06:22:10;33.50;61.40
19847;DHT22;10084;50.518;8.588;2022-07-23T06:24:36;33.50;56.90
19847;DHT22;10084;50.518;8.588;2022-07-23T06:27:03;33.60;56.70
19847;DHT22;10084;50.518;8.588;2022-07-23T06:29:29;33.50;56.30
19847;DHT22;10084;50.518;8.588;2022-07-23T06:31:55;33.30;55.90
19847;DHT22;10084;50.518;8.588;2022-07-23T06:34:21;32.90;62.70
19847;DHT22;10084;50.518;8.588;2022-07-23T06:36:46;31.50;58.90
19847;DHT22;10084;50.518;8.588;2022-07-23T06:39:12;32.30;61.50
19847;DHT22;10084;50.518;8.588;2022-07-23T06:41:38;32.10;62.60
19847;DHT22;10084;50.518;8.588;2022-07-23T06:44:03;31.80;55.60
19847;DHT22;10084;50.518;8.588;2022-07-23T06:46:31;31.50;56.60
19847;DHT22;10084;50.518;8.588;2022-07-23T06:48:57;31.10;53.40
19847;DHT22;10084;50.518;8.588;2022-07-23T06:51:22;30.70;53.90
19847;DHT22;10084;50.518;8.588;2022-07-23T06:53:48;30.30;57.80
19847;DHT22;10084;50.518;8.588;2022-07-23T06:56:14;30.00;57.40
19847;DHT22;10084;50.518;8.588;2022-07-23T06:58:39;29.30;57.40
19847;DHT22;10084;50.518;8.588;2022-07-23T07:01:05;29.30;57.50
19847;DHT22;10084;50.518;8.588;2022-07-23T07:03:31;29.00;54.60
19847;DHT22;10084;50.518;8.588;2022-07-23T07:05:57;28.90;56.70
19847;DHT22;10084;50.518;8.588;2022-07-23T07:08:23;28.80;59.10
19847;DHT22;10084;50.518;8.588;2022-07-23T07:10:49;28.90;59.80
19847;DHT22;10084;50.518;8.588;2022-07-23T07:13:15;28.90;56.10
19847;DHT22;10084;50.518;8.588;2022-07-23T07:15:41;29.00;56.10
19847;DHT22;10084;50.518;8.588;2022-07-23T07:18:07;29.50;56.80
19847;DHT22;10084;50.518;8.588;2022-07-23T07:20:33;29.20;54.50
19847;DHT22;10084;50.518;8.588;2022-07-23T07:22:59;29.20;53.20
19847;DHT22;10084;50.518;8.588;2022-07-23T07:25:24;29.00;54.00
19847;DHT22;10084;50.518;8.588;2022-07-23T07:27:50;28.80;54.50
19847;DHT22;10084;50.518;8.588;2022-07-23T07:30:16;28.50;54.20
19847;DHT22;10084;50.518;8.588;2022-07-23T07:32:42;28.30;56.90
19847;DHT22;10084;50.518;8.588;2022-07-23T07:35:08;28.20;58.60
19847;DHT22;10084;50.518;8.588;2022-07-23T07:37:34;28.10;61.50
19847;DHT22;10084;50.518;8.588;2022-07-23T07:40:00;28.10;62.70
19847;DHT22;10084;50.518;8.588;2022-07-23T07:42:26;28.20;60.50
19847;DHT22;10084;50.518;8.588;2022-07-23T07:44:51;28.40;53.70
19847;DHT22;10084;50.518;8.588;2022-07-23T07:47:17;28.50;54.10
19847;DHT22;10084;50.518;8.588;2022-07-23T07:49:43;28.60;54.50
19847;DHT22;10084;50.518;8.588;2022-07-23T07:52:09;28.60;58.00
19847;DHT22;10084;50.518;8.588;2022-07-23T07:54:36;28.70;56.60
19847;DHT22;10084;50.518;8.588;2022-07-23T07:57:01;28.70;58.50
19847;DHT22;10084;50.518;8.588;2022-07-23T07:59:28;28.70;53.10
19847;DHT22;10084;50.518;8.588;2022-07-23T08:01:53;28.70;53.00
19847;DHT22;10084;50.518;8.588;2022-07-23T08:04:19;28.80;53.10
19847;DHT22;10084;50.518;8.588;2022-07-23T08:06:45;28.90;53.10
19847;DHT22;10084;50.518;8.588;2022-07-23T08:09:11;29.10;53.10
19847;DHT22;10084;50.518;8.588;2022-07-23T08:11:36;29.30;56.40
19847;DHT22;10084;50.518;8.588;2022-07-23T08:14:02;29.60;59.10
19847;DHT22;10084;50.518;8.588;2022-07-23T08:16:28;29.70;53.30
19847;DHT22;10084;50.518;8.588;2022-07-23T08:18:54;29.80;52.10
19847;DHT22;10084;50.518;8.588;2022-07-23T08:21:19;29.90;52.00
19847;DHT22;10084;50.518;8.588;2022-07-23T08:23:45;30.10;51.80
19847;DHT22;10084;50.518;8.588;2022-07-23T08:26:11;30.00;51.90
19847;DHT22;10084;50.518;8.588;2022-07-23T08:28:37;30.00;52.40
19847;DHT22;10084;50.518;8.588;2022-07-23T08:31:02;30.10;53.10
19847;DHT22;10084;50.518;8.588;2022-07-23T08:33:31;30.20;54.00
19847;DHT22;10084;50.518;8.588;2022-07-23T08:35:56;30.20;53.70
19847;DHT22;10084;50.518;8.588;2022-07-23T08:38:23;30.20;57.20
19847;DHT22;10084;50.518;8.588;2022-07-23T08:40:52;30.20;58.00
19847;DHT22;10084;50.518;8.588;2022-07-23T08:43:21;30.20;55.80
19847;DHT22;10084;50.518;8.588;2022-07-23T08:45:53;29.90;55.50
19847;DHT22;10084;50.518;8.588;2022-07-23T08:48:21;30.30;51.50
19847;DHT22;10084;50.518;8.588;2022-07-23T08:50:49;30.40;54.00
19847;DHT22;10084;50.518;8.588;2022-07-23T08:53:17;30.60;56.90
19847;DHT22;10084;50.518;8.588;2022-07-23T08:55:48;30.70;53.10
19847;DHT22;10084;50.518;8.588;2022-07-23T08:58:14;30.70;53.70
19847;DHT22;10084;50.518;8.588;2022-07-23T09:00:41;30.70;53.60
19847;DHT22;10084;50.518;8.588;2022-07-23T09:03:07;30.80;54.00
19847;DHT22;10084;50.518;8.588;2022-07-23T09:05:33;30.80;55.00
19847;DHT22;10084;50.518;8.588;2022-07-23T09:11:04;31.00;59.30
19847;DHT22;10084;50.518;8.588;2022-07-23T09:13:36;30.60;54.30
19847;DHT22;10084;50.518;8.588;2022-07-23T09:18:33;31.40;56.10
19847;DHT22;10084;50.518;8.588;2022-07-23T09:21:11;31.40;52.50
19847;DHT22;10084;50.518;8.588;2022-07-23T09:26:38;31.30;56.90
19847;DHT22;10084;50.518;8.588;2022-07-23T09:29:08;31.30;55.50
19847;DHT22;10084;50.518;8.588;2022-07-23T09:31:51;31.50;57.50
19847;DHT22;10084;50.518;8.588;2022-07-23T09:36:48;31.70;57.70
19847;DHT22;10084;50.518;8.588;2022-07-23T09:39:16;31.80;59.40
19847;DHT22;10084;50.518;8.588;2022-07-23T09:41:48;31.80;60.40
19847;DHT22;10084;50.518;8.588;2022-07-23T09:44:19;31.60;58.90
19847;DHT22;10084;50.518;8.588;2022-07-23T09:46:46;31.60;59.90
19847;DHT22;10084;50.518;8.588;2022-07-23T09:51:44;31.50;58.10
19847;DHT22;10084;50.518;8.588;2022-07-23T09:54:34;31.40;57.20
19847;DHT22;10084;50.518;8.588;2022-07-23T09:57:10;31.10;55.70
19847;DHT22;10084;50.518;8.588;2022-07-23T09:59:42;31.00;54.70
19847;DHT22;10084;50.518;8.588;2022-07-23T10:02:10;31.00;56.30
19847;DHT22;10084;50.518;8.588;2022-07-23T10:04:53;31.10;54.10
19847;DHT22;10084;50.518;8.588;2022-07-23T10:07:26;31.20;52.60
19847;DHT22;10084;50.518;8.588;2022-07-23T10:10:22;31.50;56.00
19847;DHT22;10084;50.518;8.588;2022-07-23T10:13:10;31.50;54.30
19847;DHT22;10084;50.518;8.588;2022-07-23T10:15:55;31.60;55.00
19847;DHT22;10084;50.518;8.588;2022-07-23T10:18:20;31.60;53.10
19847;DHT22;10084;50.518;8.588;2022-07-23T10:20:47;31.60;54.70
19847;DHT22;10084;50.518;8.588;2022-07-23T10:28:46;31.50;48.50
19847;DHT22;10084;50.518;8.588;2022-07-23T10:34:02;31.80;50.90
19847;DHT22;10084;50.518;8.588;2022-07-23T10:36:49;31.90;50.70
19847;DHT22;10084;50.518;8.588;2022-07-23T10:39:31;32.00;54.70
19847;DHT22;10084;50.518;8.588;2022-07-23T10:42:14;32.10;51.30
19847;DHT22;10084;50.518;8.588;2022-07-23T10:44:46;32.10;52.80
19847;DHT22;10084;50.518;8.588;2022-07-23T10:47:28;31.90;54.10
19847;DHT22;10084;50.518;8.588;2022-07-23T10:50:25;32.30;54.90
19847;DHT22;10084;50.518;8.588;2022-07-23T10:53:13;33.00;51.10
19847;DHT22;10084;50.518;8.588;2022-07-23T10:58:09;32.60;52.50
19847;DHT22;10084;50.518;8.588;2022-07-23T11:00:36;32.80;53.80
19847;DHT22;10084;50.518;8.588;2022-07-23T11:03:27;32.80;52.40
19847;DHT22;10084;50.518;8.588;2022-07-23T11:05:50;32.80;46.00
19847;DHT22;10084;50.518;8.588;2022-07-23T11:08:19;32.60;47.30
19847;DHT22;10084;50.518;8.588;2022-07-23T11:10:46;32.40;46.10
19847;DHT22;10084;50.518;8.588;2022-07-23T11:26:55;32.50;44.10
19847;DHT22;10084;50.518;8.588;2022-07-23T11:31:57;32.50;44.60
19847;DHT22;10084;50.518;8.588;2022-07-23T11:34:39;32.40;45.60
19847;DHT22;10084;50.518;8.588;2022-07-23T11:37:07;32.30;45.90
19847;DHT22;10084;50.518;8.588;2022-07-23T11:39:34;32.10;49.00
19847;DHT22;10084;50.518;8.588;2022-07-23T11:42:01;32.00;47.70
19847;DHT22;10084;50.518;8.588;2022-07-23T11:44:38;31.90;48.90
19847;DHT22;10084;50.518;8.588;2022-07-23T11:49:31;31.80;49.10
19847;DHT22;10084;50.518;8.588;2022-07-23T11:54:34;31.90;46.30
19847;DHT22;10084;50.518;8.588;2022-07-23T11:57:01;32.00;49.00
19847;DHT22;10084;50.518;8.588;2022-07-23T11:59:30;32.10;47.00
19847;DHT22;10084;50.518;8.588;2022-07-23T12:01:59;32.10;48.00
19847;DHT22;10084;50.518;8.588;2022-07-23T12:04:37;32.20;48.70
19847;DHT22;10084;50.518;8.588;2022-07-23T12:07:04;32.20;48.00
19847;DHT22;10084;50.518;8.588;2022-07-23T12:09:29;32.30;48.60
19847;DHT22;10084;50.518;8.588;2022-07-23T12:11:59;32.40;45.70
19847;DHT22;10084;50.518;8.588;2022-07-23T12:14:25;32.50;45.70
19847;DHT22;10084;50.518;8.588;2022-07-23T12:17:10;32.50;46.40
19847;DHT22;10084;50.518;8.588;2022-07-23T12:19:36;32.50;52.10
19847;DHT22;10084;50.518;8.588;2022-07-23T12:22:02;32.50;47.80
19847;DHT22;10084;50.518;8.588;2022-07-23T12:24:27;32.50;52.30
19847;DHT22;10084;50.518;8.588;2022-07-23T12:27:12;32.30;47.40
19847;DHT22;10084;50.518;8.588;2022-07-23T12:29:39;32.10;46.50
19847;DHT22;10084;50.518;8.588;2022-07-23T12:32:42;32.00;46.40
19847;DHT22;10084;50.518;8.588;2022-07-23T12:35:08;31.80;46.50
19847;DHT22;10084;50.518;8.588;2022-07-23T12:37:37;31.80;47.10
19847;DHT22;10084;50.518;8.588;2022-07-23T12:42:49;31.80;44.80
19847;DHT22;10084;50.518;8.588;2022-07-23T12:45:15;31.90;46.30
19847;DHT22;10084;50.518;8.588;2022-07-23T12:48:21;31.90;46.70
19847;DHT22;10084;50.518;8.588;2022-07-23T12:55:49;32.50;47.40
19847;DHT22;10084;50.518;8.588;2022-07-23T12:58:18;32.00;46.90
19847;DHT22;10084;50.518;8.588;2022-07-23T13:01:04;31.90;44.90
19847;DHT22;10084;50.518;8.588;2022-07-23T13:06:03;31.90;47.50
19847;DHT22;10084;50.518;8.588;2022-07-23T13:08:31;31.80;45.80
19847;DHT22;10084;50.518;8.588;2022-07-23T13:10:57;31.80;45.90
19847;DHT22;10084;50.518;8.588;2022-07-23T13:13:25;31.90;46.40
19847;DHT22;10084;50.518;8.588;2022-07-23T13:15:52;31.90;47.40
19847;DHT22;10084;50.518;8.588;2022-07-23T13:18:18;31.90;47.70
19847;DHT22;10084;50.518;8.588;2022-07-23T13:20:45;31.80;47.10
19847;DHT22;10084;50.518;8.588;2022-07-23T13:23:11;31.60;46.80
19847;DHT22;10084;50.518;8.588;2022-07-23T13:25:37;31.60;49.20
19847;DHT22;10084;50.518;8.588;2022-07-23T13:28:03;31.60;51.70
19847;DHT22;10084;50.518;8.588;2022-07-23T13:30:28;31.60;49.60
19847;DHT22;10084;50.518;8.588;2022-07-23T13:32:54;31.50;50.80
19847;DHT22;10084;50.518;8.588;2022-07-23T13:35:20;31.40;45.40
19847;DHT22;10084;50.518;8.588;2022-07-23T13:37:46;31.40;49.70
19847;DHT22;10084;50.518;8.588;2022-07-23T13:40:12;31.20;48.80
19847;DHT22;10084;50.518;8.588;2022-07-23T13:42:38;31.20;51.20
19847;DHT22;10084;50.518;8.588;2022-07-23T13:45:05;31.10;50.10
19847;DHT22;10084;50.518;8.588;2022-07-23T13:47:31;31.10;50.70
19847;DHT22;10084;50.518;8.588;2022-07-23T13:49:57;31.20;52.80
19847;DHT22;10084;50.518;8.588;2022-07-23T13:52:23;31.30;53.00
19847;DHT22;10084;50.518;8.588;2022-07-23T13:54:50;30.90;51.60
19847;DHT22;10084;50.518;8.588;2022-07-23T13:57:16;31.10;52.70
19847;DHT22;10084;50.518;8.588;2022-07-23T13:59:42;31.00;49.60
19847;DHT22;10084;50.518;8.588;2022-07-23T14:02:08;31.00;51.40
19847;DHT22;10084;50.518;8.588;2022-07-23T14:04:34;30.90;52.00
19847;DHT22;10084;50.518;8.588;2022-07-23T14:07:00;30.70;49.40
19847;DHT22;10084;50.518;8.588;2022-07-23T14:09:26;30.70;46.00
19847;DHT22;10084;50.518;8.588;2022-07-23T14:11:52;30.60;49.50
19847;DHT22;10084;50.518;8.588;2022-07-23T14:14:18;30.60;51.50
19847;DHT22;10084;50.518;8.588;2022-07-23T14:16:44;30.60;50.90
19847;DHT22;10084;50.518;8.588;2022-07-23T14:19:10;30.60;44.60
19847;DHT22;10084;50.518;8.588;2022-07-23T14:21:36;30.50;44.20
19847;DHT22;10084;50.518;8.588;2022-07-23T14:24:03;30.50;44.00
19847;DHT22;10084;50.518;8.588;2022-07-23T14:26:29;30.40;43.90
19847;DHT22;10084;50.518;8.588;2022-07-23T14:28:55;30.30;43.70
19847;DHT22;10084;50.518;8.588;2022-07-23T14:31:21;30.20;43.80
19847;DHT22;10084;50.518;8.588;2022-07-23T14:33:48;30.10;43.80
19847;DHT22;10084;50.518;8.588;2022-07-23T14:36:13;30.00;44.00
19847;DHT22;10084;50.518;8.588;2022-07-23T14:38:40;30.10;44.20
19847;DHT22;10084;50.518;8.588;2022-07-23T14:41:05;30.20;44.40
19847;DHT22;10084;50.518;8.588;2022-07-23T14:43:33;30.20;44.40
19847;DHT22;10084;50.518;8.588;2022-07-23T14:45:59;30.30;44.70
19847;DHT22;10084;50.518;8.588;2022-07-23T14:48:25;30.20;44.60
19847;DHT22;10084;50.518;8.588;2022-07-23T14:50:51;30.20;44.80
19847;DHT22;10084;50.518;8.588;2022-07-23T14:53:17;30.20;45.00
19847;DHT22;10084;50.518;8.588;2022-07-23T14:55:43;30.20;45.20
19847;DHT22;10084;50.518;8.588;2022-07-23T14:58:09;30.20;45.50
19847;DHT22;10084;50.518;8.588;2022-07-23T15:00:35;30.30;45.70
19847;DHT22;10084;50.518;8.588;2022-07-23T15:03:00;30.30;46.20
19847;DHT22;10084;50.518;8.588;2022-07-23T15:05:26;30.40;47.50
19847;DHT22;10084;50.518;8.588;2022-07-23T15:07:53;30.50;49.80
19847;DHT22;10084;50.518;8.588;2022-07-23T15:10:19;30.50;48.20
19847;DHT22;10084;50.518;8.588;2022-07-23T15:12:44;30.50;48.50
19847;DHT22;10084;50.518;8.588;2022-07-23T15:15:10;30.50;50.80
19847;DHT22;10084;50.518;8.588;2022-07-23T15:17:36;30.40;49.70
19847;DHT22;10084;50.518;8.588;2022-07-23T15:20:02;30.50;52.10
19847;DHT22;10084;50.518;8.588;2022-07-23T15:22:28;30.40;51.80
19847;DHT22;10084;50.518;8.588;2022-07-23T15:24:54;30.40;48.80
19847;DHT22;10084;50.518;8.588;2022-07-23T15:27:20;30.30;46.80
19847;DHT22;10084;50.518;8.588;2022-07-23T15:29:46;30.30;48.20
19847;DHT22;10084;50.518;8.588;2022-07-23T15:32:11;30.20;45.60
19847;DHT22;10084;50.518;8.588;2022-07-23T15:34:38;30.20;47.40
19847;DHT22;10084;50.518;8.588;2022-07-23T15:37:04;30.10;44.60
19847;DHT22;10084;50.518;8.588;2022-07-23T15:39:33;30.10;49.90
19847;DHT22;10084;50.518;8.588;2022-07-23T15:42:00;30.00;49.00
19847;DHT22;10084;50.518;8.588;2022-07-23T15:44:26;30.00;50.80
19847;DHT22;10084;50.518;8.588;2022-07-23T15:46:52;30.00;51.20
19847;DHT22;10084;50.518;8.588;2022-07-23T15:49:17;29.90;52.60
19847;DHT22;10084;50.518;8.588;2022-07-23T15:51:43;30.00;53.40
19847;DHT22;10084;50.518;8.588;2022-07-23T15:54:09;29.90;51.00
19847;DHT22;10084;50.518;8.588;2022-07-23T15:56:35;29.90;52.60
19847;DHT22;10084;50.518;8.588;2022-07-23T15:59:01;29.90;51.40
19847;DHT22;10084;50.518;8.588;2022-07-23T16:01:27;29.80;54.10
19847;DHT22;10084;50.518;8.588;2022-07-23T16:03:56;29.80;53.00
19847;DHT22;10084;50.518;8.588;2022-07-23T16:06:23;29.70;53.00
19847;DHT22;10084;50.518;8.588;2022-07-23T16:08:50;29.60;53.60
19847;DHT22;10084;50.518;8.588;2022-07-23T16:11:15;29.60;54.90
19847;DHT22;10084;50.518;8.588;2022-07-23T16:13:41;29.50;45.90
19847;DHT22;10084;50.518;8.588;2022-07-23T16:16:07;29.80;53.80
19847;DHT22;10084;50.518;8.588;2022-07-23T16:18:34;29.50;45.40
19847;DHT22;10084;50.518;8.588;2022-07-23T16:21:00;29.40;47.80
19847;DHT22;10084;50.518;8.588;2022-07-23T16:23:25;29.40;54.30
19847;DHT22;10084;50.518;8.588;2022-07-23T16:25:51;29.30;53.50
19847;DHT22;10084;50.518;8.588;2022-07-23T16:28:17;29.30;53.20
19847;DHT22;10084;50.518;8.588;2022-07-23T16:30:43;29.20;47.50
19847;DHT22;10084;50.518;8.588;2022-07-23T16:33:09;29.10;47.70
19847;DHT22;10084;50.518;8.588;2022-07-23T16:35:35;29.10;48.20
19847;DHT22;10084;50.518;8.588;2022-07-23T16:38:01;29.00;48.30
19847;DHT22;10084;50.518;8.588;2022-07-23T16:40:29;28.90;48.80
19847;DHT22;10084;50.518;8.588;2022-07-23T16:42:55;28.80;46.10
19847;DHT22;10084;50.518;8.588;2022-07-23T16:45:21;28.80;46.90
19847;DHT22;10084;50.518;8.588;2022-07-23T16:47:47;28.70;48.50
19847;DHT22;10084;50.518;8.588;2022-07-23T16:50:13;28.60;50.00
19847;DHT22;10084;50.518;8.588;2022-07-23T16:52:38;28.50;50.50
19847;DHT22;10084;50.518;8.588;2022-07-23T16:55:05;28.50;51.50
19847;DHT22;10084;50.518;8.588;2022-07-23T16:57:31;28.40;54.50
19847;DHT22;10084;50.518;8.588;2022-07-23T16:59:57;28.40;52.60
19847;DHT22;10084;50.518;8.588;2022-07-23T17:02:23;28.40;52.80
19847;DHT22;10084;50.518;8.588;2022-07-23T17:04:49;28.40;48.70
19847;DHT22;10084;50.518;8.588;2022-07-23T17:07:15;28.50;47.30
19847;DHT22;10084;50.518;8.588;2022-07-23T17:09:41;28.30;45.70
19847;DHT22;10084;50.518;8.588;2022-07-23T17:12:08;28.30;46.30
19847;DHT22;10084;50.518;8.588;2022-07-23T17:14:34;28.20;54.40
19847;DHT22;10084;50.518;8.588;2022-07-23T17:17:00;28.20;46.40
19847;DHT22;10084;50.518;8.588;2022-07-23T17:19:25;28.20;46.70
19847;DHT22;10084;50.518;8.588;2022-07-23T17:21:51;28.10;47.30
19847;DHT22;10084;50.518;8.588;2022-07-23T17:24:17;28.10;52.00
19847;DHT22;10084;50.518;8.588;2022-07-23T17:26:43;28.10;50.20
19847;DHT22;10084;50.518;8.588;2022-07-23T17:29:09;28.00;55.40
19847;DHT22;10084;50.518;8.588;2022-07-23T17:31:35;28.00;50.90
19847;DHT22;10084;50.518;8.588;2022-07-23T17:34:01;27.70;55.40
19847;DHT22;10084;50.518;8.588;2022-07-23T17:36:27;27.90;56.20
19847;DHT22;10084;50.518;8.588;2022-07-23T17:38:52;27.90;57.50
19847;DHT22;10084;50.518;8.588;2022-07-23T17:41:18;27.80;61.10
19847;DHT22;10084;50.518;8.588;2022-07-23T17:48:38;27.70;61.40
19847;DHT22;10084;50.518;8.588;2022-07-23T17:51:07;27.70;63.90
19847;DHT22;10084;50.518;8.588;2022-07-23T17:53:34;27.60;64.40
19847;DHT22;10084;50.518;8.588;2022-07-23T17:58:29;27.60;68.50
19847;DHT22;10084;50.518;8.588;2022-07-23T18:03:23;27.40;63.50
19847;DHT22;10084;50.518;8.588;2022-07-23T18:05:49;27.60;66.80
19847;DHT22;10084;50.518;8.588;2022-07-23T18:08:14;27.40;65.20
19847;DHT22;10084;50.518;8.588;2022-07-23T18:10:40;27.40;67.10
19847;DHT22;10084;50.518;8.588;2022-07-23T18:15:35;27.40;71.10
19847;DHT22;10084;50.518;8.588;2022-07-23T18:18:01;27.30;61.90
19847;DHT22;10084;50.518;8.588;2022-07-23T18:25:24;27.10;72.20
19847;DHT22;10084;50.518;8.588;2022-07-23T18:32:44;27.00;73.00
19847;DHT22;10084;50.518;8.588;2022-07-23T18:37:39;27.00;72.00
19847;DHT22;10084;50.518;8.588;2022-07-23T18:40:07;27.10;68.10
19847;DHT22;10084;50.518;8.588;2022-07-23T18:47:27;26.90;68.40
19847;DHT22;10084;50.518;8.588;2022-07-23T19:11:50;26.30;69.30
19847;DHT22;10084;50.518;8.588;2022-07-23T19:14:16;26.20;65.30